South Hero, Vermont
Current Conditions -  °F | °C
As of 8:53 AM on Friday 28 Nov 2014 (Local Time) from KPBG Reporting Station
Overcast Overcast  
Wind Chill: 18°   Ceiling: 3600
Heat Index: 25°   Visibility: 10mi
Dew Point: 16°   Wind: 6mph
Humidity: 69%   Direction: 270°W
Pressure: 30.11"   Gusts: NA
Location:  44.65°N, 73.3°W
Report Text: KPBG 281353Z AUTO 27005KT 10SM OVC036 M04/M09 A3011 RMK AO2 SLP200 T10391089
Loading
Personal Weather Stations






























Interactive Weather Map New forecast layout! Learn more

10-Day Weather Forecast

Advertisements
Track Severe Weather on mobile